sensor_id;sensor_type;location;lat;lon;timestamp;P1;durP1;ratioP1;P2;durP2;ratioP2
51686;SDS011;37774;52.192;4.584;2023-04-28T00:01:09;11.82;;;4.68;;
51686;SDS011;37774;52.192;4.584;2023-04-28T00:03:56;10.07;;;4.95;;
51686;SDS011;37774;52.192;4.584;2023-04-28T00:06:43;8.07;;;4.80;;
51686;SDS011;37774;52.192;4.584;2023-04-28T00:09:29;9.88;;;4.78;;
51686;SDS011;37774;52.192;4.584;2023-04-28T00:12:14;10.57;;;5.28;;
51686;SDS011;37774;52.192;4.584;2023-04-28T00:15:00;9.38;;;4.28;;
51686;SDS011;37774;52.192;4.584;2023-04-28T00:17:46;13.52;;;4.60;;
51686;SDS011;37774;52.192;4.584;2023-04-28T00:20:33;10.35;;;4.57;;
51686;SDS011;37774;52.192;4.584;2023-04-28T00:23:18;10.65;;;4.10;;
51686;SDS011;37774;52.192;4.584;2023-04-28T00:26:03;9.77;;;4.50;;
51686;SDS011;37774;52.192;4.584;2023-04-28T00:28:49;10.40;;;4.43;;
51686;SDS011;37774;52.192;4.584;2023-04-28T00:31:34;8.52;;;4.43;;
51686;SDS011;37774;52.192;4.584;2023-04-28T00:34:19;13.68;;;4.85;;
51686;SDS011;37774;52.192;4.584;2023-04-28T00:37:06;11.32;;;4.70;;
51686;SDS011;37774;52.192;4.584;2023-04-28T00:39:55;7.93;;;4.28;;
51686;SDS011;37774;52.192;4.584;2023-04-28T00:42:41;15.13;;;5.13;;
51686;SDS011;37774;52.192;4.584;2023-04-28T00:45:26;8.63;;;4.32;;
51686;SDS011;37774;52.192;4.584;2023-04-28T00:48:12;13.68;;;4.38;;
51686;SDS011;37774;52.192;4.584;2023-04-28T00:50:57;8.18;;;3.95;;
51686;SDS011;37774;52.192;4.584;2023-04-28T00:53:44;9.65;;;4.45;;
51686;SDS011;37774;52.192;4.584;2023-04-28T00:56:30;7.10;;;3.85;;
51686;SDS011;37774;52.192;4.584;2023-04-28T00:59:15;9.75;;;4.68;;
51686;SDS011;37774;52.192;4.584;2023-04-28T01:02:01;15.00;;;4.68;;
51686;SDS011;37774;52.192;4.584;2023-04-28T01:04:47;8.82;;;4.07;;
51686;SDS011;37774;52.192;4.584;2023-04-28T01:07:34;12.70;;;4.57;;
51686;SDS011;37774;52.192;4.584;2023-04-28T01:10:21;17.75;;;5.03;;
51686;SDS011;37774;52.192;4.584;2023-04-28T01:15:51;7.80;;;4.68;;
51686;SDS011;37774;52.192;4.584;2023-04-28T01:18:37;11.88;;;4.80;;
51686;SDS011;37774;52.192;4.584;2023-04-28T01:21:29;15.60;;;5.10;;
51686;SDS011;37774;52.192;4.584;2023-04-28T01:24:17;9.20;;;4.28;;
51686;SDS011;37774;52.192;4.584;2023-04-28T01:27:03;12.20;;;4.55;;
51686;SDS011;37774;52.192;4.584;2023-04-28T01:29:49;11.55;;;4.75;;
51686;SDS011;37774;52.192;4.584;2023-04-28T01:32:34;10.88;;;4.00;;
51686;SDS011;37774;52.192;4.584;2023-04-28T01:35:19;11.23;;;4.30;;
51686;SDS011;37774;52.192;4.584;2023-04-28T01:38:05;16.17;;;5.22;;
51686;SDS011;37774;52.192;4.584;2023-04-28T01:40:51;10.93;;;4.22;;
51686;SDS011;37774;52.192;4.584;2023-04-28T01:43:39;8.70;;;4.07;;
51686;SDS011;37774;52.192;4.584;2023-04-28T01:46:24;9.93;;;4.80;;
51686;SDS011;37774;52.192;4.584;2023-04-28T01:49:10;8.18;;;4.03;;
51686;SDS011;37774;52.192;4.584;2023-04-28T01:51:55;7.72;;;3.78;;
51686;SDS011;37774;52.192;4.584;2023-04-28T01:54:40;11.55;;;4.05;;
51686;SDS011;37774;52.192;4.584;2023-04-28T01:57:27;7.60;;;4.50;;
51686;SDS011;37774;52.192;4.584;2023-04-28T02:00:13;8.30;;;4.13;;
51686;SDS011;37774;52.192;4.584;2023-04-28T02:02:59;9.20;;;3.42;;
51686;SDS011;37774;52.192;4.584;2023-04-28T02:05:44;12.43;;;4.35;;
51686;SDS011;37774;52.192;4.584;2023-04-28T02:08:30;6.03;;;3.15;;
51686;SDS011;37774;52.192;4.584;2023-04-28T02:11:15;16.50;;;5.18;;
51686;SDS011;37774;52.192;4.584;2023-04-28T02:14:02;10.85;;;4.03;;
51686;SDS011;37774;52.192;4.584;2023-04-28T02:16:47;8.10;;;4.10;;
51686;SDS011;37774;52.192;4.584;2023-04-28T02:19:33;8.63;;;3.53;;
51686;SDS011;37774;52.192;4.584;2023-04-28T02:22:18;8.63;;;3.83;;
51686;SDS011;37774;52.192;4.584;2023-04-28T02:25:04;8.27;;;3.88;;
51686;SDS011;37774;52.192;4.584;2023-04-28T02:27:50;8.73;;;3.83;;
51686;SDS011;37774;52.192;4.584;2023-04-28T02:30:37;6.28;;;3.55;;
51686;SDS011;37774;52.192;4.584;2023-04-28T02:33:22;11.43;;;3.67;;
51686;SDS011;37774;52.192;4.584;2023-04-28T02:36:08;6.07;;;3.65;;
51686;SDS011;37774;52.192;4.584;2023-04-28T02:38:54;9.50;;;3.70;;
51686;SDS011;37774;52.192;4.584;2023-04-28T02:41:39;8.95;;;3.63;;
51686;SDS011;37774;52.192;4.584;2023-04-28T02:44:25;10.00;;;4.28;;
51686;SDS011;37774;52.192;4.584;2023-04-28T02:47:12;15.88;;;4.00;;
51686;SDS011;37774;52.192;4.584;2023-04-28T02:50:00;6.90;;;3.67;;
51686;SDS011;37774;52.192;4.584;2023-04-28T02:52:45;12.85;;;4.05;;
51686;SDS011;37774;52.192;4.584;2023-04-28T02:55:30;8.63;;;4.18;;
51686;SDS011;37774;52.192;4.584;2023-04-28T02:58:16;12.30;;;3.53;;
51686;SDS011;37774;52.192;4.584;2023-04-28T03:01:02;4.22;;;3.13;;
51686;SDS011;37774;52.192;4.584;2023-04-28T03:03:49;6.35;;;3.03;;
51686;SDS011;37774;52.192;4.584;2023-04-28T03:06:35;6.18;;;3.50;;
51686;SDS011;37774;52.192;4.584;2023-04-28T03:09:20;12.75;;;4.15;;
51686;SDS011;37774;52.192;4.584;2023-04-28T03:12:06;5.50;;;2.97;;
51686;SDS011;37774;52.192;4.584;2023-04-28T03:14:51;6.22;;;3.38;;
51686;SDS011;37774;52.192;4.584;2023-04-28T03:17:36;8.07;;;3.58;;
51686;SDS011;37774;52.192;4.584;2023-04-28T03:20:26;11.40;;;3.42;;
51686;SDS011;37774;52.192;4.584;2023-04-28T03:23:11;8.32;;;4.03;;
51686;SDS011;37774;52.192;4.584;2023-04-28T03:25:57;14.95;;;3.70;;
51686;SDS011;37774;52.192;4.584;2023-04-28T03:28:42;8.52;;;3.33;;
51686;SDS011;37774;52.192;4.584;2023-04-28T03:31:28;8.73;;;4.15;;
51686;SDS011;37774;52.192;4.584;2023-04-28T03:34:14;5.05;;;2.85;;
51686;SDS011;37774;52.192;4.584;2023-04-28T03:37:01;5.55;;;3.13;;
51686;SDS011;37774;52.192;4.584;2023-04-28T03:39:46;10.43;;;4.72;;
51686;SDS011;37774;52.192;4.584;2023-04-28T03:42:32;8.57;;;3.70;;
51686;SDS011;37774;52.192;4.584;2023-04-28T03:45:17;10.35;;;3.60;;
51686;SDS011;37774;52.192;4.584;2023-04-28T03:48:03;9.68;;;3.88;;
51686;SDS011;37774;52.192;4.584;2023-04-28T03:50:48;8.40;;;4.65;;
51686;SDS011;37774;52.192;4.584;2023-04-28T03:53:35;8.20;;;3.45;;
51686;SDS011;37774;52.192;4.584;2023-04-28T03:56:22;8.93;;;3.70;;
51686;SDS011;37774;52.192;4.584;2023-04-28T03:59:08;15.55;;;4.75;;
51686;SDS011;37774;52.192;4.584;2023-04-28T04:01:54;9.25;;;3.60;;
51686;SDS011;37774;52.192;4.584;2023-04-28T04:04:40;6.13;;;3.22;;
51686;SDS011;37774;52.192;4.584;2023-04-28T04:07:25;8.85;;;4.57;;
51686;SDS011;37774;52.192;4.584;2023-04-28T04:10:12;10.15;;;4.07;;
51686;SDS011;37774;52.192;4.584;2023-04-28T04:12:58;14.68;;;3.67;;
51686;SDS011;37774;52.192;4.584;2023-04-28T04:15:43;7.35;;;3.70;;
51686;SDS011;37774;52.192;4.584;2023-04-28T04:18:29;6.77;;;3.60;;
51686;SDS011;37774;52.192;4.584;2023-04-28T04:21:15;6.90;;;3.50;;
51686;SDS011;37774;52.192;4.584;2023-04-28T04:24:01;6.38;;;2.95;;
51686;SDS011;37774;52.192;4.584;2023-04-28T04:26:48;10.07;;;4.00;;
51686;SDS011;37774;52.192;4.584;2023-04-28T04:29:33;7.53;;;3.10;;
51686;SDS011;37774;52.192;4.584;2023-04-28T04:32:22;13.68;;;4.07;;
51686;SDS011;37774;52.192;4.584;2023-04-28T04:35:10;11.32;;;4.13;;
51686;SDS011;37774;52.192;4.584;2023-04-28T04:37:55;8.80;;;4.10;;
51686;SDS011;37774;52.192;4.584;2023-04-28T04:40:41;12.45;;;4.50;;
51686;SDS011;37774;52.192;4.584;2023-04-28T04:43:28;10.15;;;4.68;;
51686;SDS011;37774;52.192;4.584;2023-04-28T04:46:14;9.23;;;4.38;;
51686;SDS011;37774;52.192;4.584;2023-04-28T04:48:59;6.70;;;3.65;;
51686;SDS011;37774;52.192;4.584;2023-04-28T04:51:45;9.57;;;4.83;;
51686;SDS011;37774;52.192;4.584;2023-04-28T04:54:31;11.00;;;4.25;;
51686;SDS011;37774;52.192;4.584;2023-04-28T04:57:17;16.98;;;4.45;;
51686;SDS011;37774;52.192;4.584;2023-04-28T05:00:04;8.35;;;3.72;;
51686;SDS011;37774;52.192;4.584;2023-04-28T05:02:50;8.00;;;4.13;;
51686;SDS011;37774;52.192;4.584;2023-04-28T05:05:35;9.15;;;4.40;;
51686;SDS011;37774;52.192;4.584;2023-04-28T05:08:21;10.35;;;4.35;;
51686;SDS011;37774;52.192;4.584;2023-04-28T05:11:06;9.70;;;4.38;;
51686;SDS011;37774;52.192;4.584;2023-04-28T05:13:52;7.57;;;4.03;;
51686;SDS011;37774;52.192;4.584;2023-04-28T05:16:38;19.95;;;5.10;;
51686;SDS011;37774;52.192;4.584;2023-04-28T05:19:26;15.70;;;5.15;;
51686;SDS011;37774;52.192;4.584;2023-04-28T05:22:12;7.47;;;4.18;;
51686;SDS011;37774;52.192;4.584;2023-04-28T05:24:58;7.95;;;4.22;;
51686;SDS011;37774;52.192;4.584;2023-04-28T05:27:49;11.50;;;4.30;;
51686;SDS011;37774;52.192;4.584;2023-04-28T05:30:35;7.32;;;3.88;;
51686;SDS011;37774;52.192;4.584;2023-04-28T05:33:23;11.10;;;4.38;;
51686;SDS011;37774;52.192;4.584;2023-04-28T05:36:08;9.40;;;4.95;;
51686;SDS011;37774;52.192;4.584;2023-04-28T05:38:54;10.13;;;5.15;;
51686;SDS011;37774;52.192;4.584;2023-04-28T05:41:39;8.80;;;4.25;;
51686;SDS011;37774;52.192;4.584;2023-04-28T05:44:25;18.83;;;5.50;;
51686;SDS011;37774;52.192;4.584;2023-04-28T05:47:12;15.55;;;5.80;;
51686;SDS011;37774;52.192;4.584;2023-04-28T05:50:02;9.65;;;4.93;;
51686;SDS011;37774;52.192;4.584;2023-04-28T05:52:53;20.20;;;6.15;;
51686;SDS011;37774;52.192;4.584;2023-04-28T05:55:39;12.50;;;6.40;;
51686;SDS011;37774;52.192;4.584;2023-04-28T05:58:26;15.75;;;5.45;;
51686;SDS011;37774;52.192;4.584;2023-04-28T06:01:12;16.20;;;5.60;;
51686;SDS011;37774;52.192;4.584;2023-04-28T06:03:57;25.60;;;5.65;;
51686;SDS011;37774;52.192;4.584;2023-04-28T06:06:53;10.70;;;5.60;;
51686;SDS011;37774;52.192;4.584;2023-04-28T06:12:24;14.65;;;5.63;;
51686;SDS011;37774;52.192;4.584;2023-04-28T06:15:10;14.25;;;6.30;;
51686;SDS011;37774;52.192;4.584;2023-04-28T06:17:56;14.07;;;5.80;;
51686;SDS011;37774;52.192;4.584;2023-04-28T06:20:45;17.38;;;5.78;;
51686;SDS011;37774;52.192;4.584;2023-04-28T06:26:25;15.27;;;6.38;;
51686;SDS011;37774;52.192;4.584;2023-04-28T06:29:11;19.02;;;6.78;;
51686;SDS011;37774;52.192;4.584;2023-04-28T06:31:56;15.75;;;6.63;;
51686;SDS011;37774;52.192;4.584;2023-04-28T06:34:41;16.13;;;7.50;;
51686;SDS011;37774;52.192;4.584;2023-04-28T06:37:27;17.70;;;7.35;;
51686;SDS011;37774;52.192;4.584;2023-04-28T06:40:14;14.23;;;6.97;;
51686;SDS011;37774;52.192;4.584;2023-04-28T06:43:01;22.95;;;7.05;;
51686;SDS011;37774;52.192;4.584;2023-04-28T06:45:48;18.15;;;7.60;;
51686;SDS011;37774;52.192;4.584;2023-04-28T06:48:33;17.23;;;7.35;;
51686;SDS011;37774;52.192;4.584;2023-04-28T06:51:19;17.88;;;6.53;;
51686;SDS011;37774;52.192;4.584;2023-04-28T06:54:05;15.65;;;7.50;;
51686;SDS011;37774;52.192;4.584;2023-04-28T06:56:59;16.88;;;7.72;;
51686;SDS011;37774;52.192;4.584;2023-04-28T07:00:27;22.92;;;7.90;;
51686;SDS011;37774;52.192;4.584;2023-04-28T07:03:15;19.42;;;8.32;;
51686;SDS011;37774;52.192;4.584;2023-04-28T07:06:14;15.55;;;7.50;;
51686;SDS011;37774;52.192;4.584;2023-04-28T07:09:03;12.30;;;6.90;;
51686;SDS011;37774;52.192;4.584;2023-04-28T07:11:48;20.17;;;7.68;;
51686;SDS011;37774;52.192;4.584;2023-04-28T07:14:35;16.85;;;7.63;;
51686;SDS011;37774;52.192;4.584;2023-04-28T07:17:21;19.42;;;8.43;;
51686;SDS011;37774;52.192;4.584;2023-04-28T07:20:09;19.60;;;8.52;;
51686;SDS011;37774;52.192;4.584;2023-04-28T07:22:55;16.73;;;8.35;;
51686;SDS011;37774;52.192;4.584;2023-04-28T07:25:40;17.30;;;8.55;;
51686;SDS011;37774;52.192;4.584;2023-04-28T07:28:26;16.13;;;8.73;;
51686;SDS011;37774;52.192;4.584;2023-04-28T07:31:13;20.60;;;9.27;;
51686;SDS011;37774;52.192;4.584;2023-04-28T07:33:59;19.48;;;8.63;;
51686;SDS011;37774;52.192;4.584;2023-04-28T07:36:45;16.55;;;8.68;;
51686;SDS011;37774;52.192;4.584;2023-04-28T07:39:30;17.70;;;8.65;;
51686;SDS011;37774;52.192;4.584;2023-04-28T07:42:16;20.73;;;8.82;;
51686;SDS011;37774;52.192;4.584;2023-04-28T07:45:03;24.20;;;9.60;;
51686;SDS011;37774;52.192;4.584;2023-04-28T07:47:53;22.80;;;9.20;;
51686;SDS011;37774;52.192;4.584;2023-04-28T07:50:40;20.42;;;9.50;;
51686;SDS011;37774;52.192;4.584;2023-04-28T07:53:26;28.85;;;11.35;;
51686;SDS011;37774;52.192;4.584;2023-04-28T07:56:12;25.35;;;9.30;;
51686;SDS011;37774;52.192;4.584;2023-04-28T07:59:00;23.33;;;9.43;;
51686;SDS011;37774;52.192;4.584;2023-04-28T08:01:45;19.88;;;9.70;;
51686;SDS011;37774;52.192;4.584;2023-04-28T08:04:32;23.63;;;10.20;;
51686;SDS011;37774;52.192;4.584;2023-04-28T08:07:20;22.55;;;9.18;;
51686;SDS011;37774;52.192;4.584;2023-04-28T08:10:10;19.25;;;9.90;;
51686;SDS011;37774;52.192;4.584;2023-04-28T08:12:56;14.73;;;8.85;;
51686;SDS011;37774;52.192;4.584;2023-04-28T08:15:42;19.50;;;9.63;;
51686;SDS011;37774;52.192;4.584;2023-04-28T08:18:28;27.60;;;10.68;;
51686;SDS011;37774;52.192;4.584;2023-04-28T08:21:18;21.42;;;10.35;;
51686;SDS011;37774;52.192;4.584;2023-04-28T08:24:04;25.35;;;11.45;;
51686;SDS011;37774;52.192;4.584;2023-04-28T08:26:53;20.55;;;11.05;;
51686;SDS011;37774;52.192;4.584;2023-04-28T08:29:39;26.98;;;11.10;;
51686;SDS011;37774;52.192;4.584;2023-04-28T08:32:24;20.10;;;10.13;;
51686;SDS011;37774;52.192;4.584;2023-04-28T08:35:10;19.00;;;10.43;;
51686;SDS011;37774;52.192;4.584;2023-04-28T08:37:59;29.27;;;12.88;;
51686;SDS011;37774;52.192;4.584;2023-04-28T08:40:51;26.50;;;11.82;;
51686;SDS011;37774;52.192;4.584;2023-04-28T08:43:36;39.30;;;12.25;;
51686;SDS011;37774;52.192;4.584;2023-04-28T08:46:26;25.15;;;12.05;;
51686;SDS011;37774;52.192;4.584;2023-04-28T08:49:12;28.90;;;14.35;;
51686;SDS011;37774;52.192;4.584;2023-04-28T08:51:59;28.35;;;12.27;;
51686;SDS011;37774;52.192;4.584;2023-04-28T08:54:46;34.30;;;14.57;;
51686;SDS011;37774;52.192;4.584;2023-04-28T08:57:37;25.02;;;12.30;;
51686;SDS011;37774;52.192;4.584;2023-04-28T09:00:22;22.92;;;12.02;;
51686;SDS011;37774;52.192;4.584;2023-04-28T09:03:08;25.80;;;12.68;;
51686;SDS011;37774;52.192;4.584;2023-04-28T09:05:55;35.07;;;12.90;;
51686;SDS011;37774;52.192;4.584;2023-04-28T09:08:40;26.30;;;12.32;;
51686;SDS011;37774;52.192;4.584;2023-04-28T09:11:27;31.50;;;12.55;;
51686;SDS011;37774;52.192;4.584;2023-04-28T09:14:13;28.70;;;13.52;;
51686;SDS011;37774;52.192;4.584;2023-04-28T09:17:08;26.33;;;13.73;;
51686;SDS011;37774;52.192;4.584;2023-04-28T09:19:55;25.23;;;13.02;;
51686;SDS011;37774;52.192;4.584;2023-04-28T09:22:41;30.60;;;13.80;;
51686;SDS011;37774;52.192;4.584;2023-04-28T09:25:28;30.23;;;14.02;;
51686;SDS011;37774;52.192;4.584;2023-04-28T09:28:22;28.88;;;13.80;;
51686;SDS011;37774;52.192;4.584;2023-04-28T09:34:23;27.95;;;13.35;;
51686;SDS011;37774;52.192;4.584;2023-04-28T09:37:15;29.13;;;13.98;;
51686;SDS011;37774;52.192;4.584;2023-04-28T09:44:17;30.45;;;15.10;;
51686;SDS011;37774;52.192;4.584;2023-04-28T09:47:34;39.88;;;18.25;;
51686;SDS011;37774;52.192;4.584;2023-04-28T09:54:51;31.48;;;16.15;;
51686;SDS011;37774;52.192;4.584;2023-04-28T09:57:49;36.50;;;18.83;;
51686;SDS011;37774;52.192;4.584;2023-04-28T10:01:23;33.38;;;16.30;;
51686;SDS011;37774;52.192;4.584;2023-04-28T10:04:35;37.42;;;17.55;;
51686;SDS011;37774;52.192;4.584;2023-04-28T10:11:34;39.83;;;19.38;;
51686;SDS011;37774;52.192;4.584;2023-04-28T10:14:54;34.75;;;16.52;;
51686;SDS011;37774;52.192;4.584;2023-04-28T10:17:53;28.73;;;14.60;;
51686;SDS011;37774;52.192;4.584;2023-04-28T10:20:40;36.30;;;16.45;;
51686;SDS011;37774;52.192;4.584;2023-04-28T10:23:46;32.00;;;16.50;;
51686;SDS011;37774;52.192;4.584;2023-04-28T10:27:01;33.05;;;14.35;;
51686;SDS011;37774;52.192;4.584;2023-04-28T10:30:10;29.38;;;14.25;;
51686;SDS011;37774;52.192;4.584;2023-04-28T10:36:16;24.35;;;11.13;;
51686;SDS011;37774;52.192;4.584;2023-04-28T10:39:31;27.50;;;11.23;;
51686;SDS011;37774;52.192;4.584;2023-04-28T10:48:54;16.60;;;6.68;;
51686;SDS011;37774;52.192;4.584;2023-04-28T10:51:42;10.82;;;5.95;;
51686;SDS011;37774;52.192;4.584;2023-04-28T10:54:27;13.30;;;6.80;;
51686;SDS011;37774;52.192;4.584;2023-04-28T10:57:21;19.55;;;7.50;;
51686;SDS011;37774;52.192;4.584;2023-04-28T11:00:25;16.65;;;7.72;;
51686;SDS011;37774;52.192;4.584;2023-04-28T11:06:29;13.55;;;6.18;;
51686;SDS011;37774;52.192;4.584;2023-04-28T11:12:36;16.67;;;7.03;;
51686;SDS011;37774;52.192;4.584;2023-04-28T11:16:03;16.17;;;5.85;;
51686;SDS011;37774;52.192;4.584;2023-04-28T11:18:53;16.23;;;6.30;;
51686;SDS011;37774;52.192;4.584;2023-04-28T11:21:48;16.70;;;6.20;;
51686;SDS011;37774;52.192;4.584;2023-04-28T11:24:35;15.30;;;6.35;;
51686;SDS011;37774;52.192;4.584;2023-04-28T11:27:24;15.45;;;6.20;;
51686;SDS011;37774;52.192;4.584;2023-04-28T11:30:19;16.75;;;6.68;;
51686;SDS011;37774;52.192;4.584;2023-04-28T11:33:05;13.73;;;5.63;;
51686;SDS011;37774;52.192;4.584;2023-04-28T11:35:52;17.53;;;6.07;;
51686;SDS011;37774;52.192;4.584;2023-04-28T11:38:45;16.52;;;5.72;;
51686;SDS011;37774;52.192;4.584;2023-04-28T11:41:31;12.52;;;4.82;;
51686;SDS011;37774;52.192;4.584;2023-04-28T11:44:17;17.85;;;6.25;;
51686;SDS011;37774;52.192;4.584;2023-04-28T11:47:05;17.83;;;6.07;;
51686;SDS011;37774;52.192;4.584;2023-04-28T11:49:51;12.07;;;5.57;;
51686;SDS011;37774;52.192;4.584;2023-04-28T11:52:46;10.48;;;4.53;;
51686;SDS011;37774;52.192;4.584;2023-04-28T11:55:34;10.70;;;4.40;;
51686;SDS011;37774;52.192;4.584;2023-04-28T11:58:19;9.55;;;3.83;;
51686;SDS011;37774;52.192;4.584;2023-04-28T12:01:07;6.95;;;3.03;;
51686;SDS011;37774;52.192;4.584;2023-04-28T12:03:52;9.07;;;3.55;;
51686;SDS011;37774;52.192;4.584;2023-04-28T12:06:38;10.27;;;2.42;;
51686;SDS011;37774;52.192;4.584;2023-04-28T12:09:25;5.50;;;2.40;;
51686;SDS011;37774;52.192;4.584;2023-04-28T12:12:13;5.00;;;1.60;;
51686;SDS011;37774;52.192;4.584;2023-04-28T12:15:01;1.98;;;1.25;;
51686;SDS011;37774;52.192;4.584;2023-04-28T12:17:48;4.20;;;1.80;;
51686;SDS011;37774;52.192;4.584;2023-04-28T12:20:34;1.90;;;1.00;;
51686;SDS011;37774;52.192;4.584;2023-04-28T12:23:28;3.80;;;1.23;;
51686;SDS011;37774;52.192;4.584;2023-04-28T12:26:14;2.08;;;1.20;;
51686;SDS011;37774;52.192;4.584;2023-04-28T12:29:10;4.90;;;1.67;;
51686;SDS011;37774;52.192;4.584;2023-04-28T12:32:35;3.70;;;1.83;;
51686;SDS011;37774;52.192;4.584;2023-04-28T12:35:21;3.85;;;1.98;;
51686;SDS011;37774;52.192;4.584;2023-04-28T12:38:10;5.47;;;2.20;;
51686;SDS011;37774;52.192;4.584;2023-04-28T12:40:56;8.13;;;3.03;;
51686;SDS011;37774;52.192;4.584;2023-04-28T12:43:41;9.90;;;4.32;;
51686;SDS011;37774;52.192;4.584;2023-04-28T12:46:28;9.80;;;3.50;;
51686;SDS011;37774;52.192;4.584;2023-04-28T12:52:00;9.52;;;4.20;;
51686;SDS011;37774;52.192;4.584;2023-04-28T12:54:46;11.45;;;4.38;;
51686;SDS011;37774;52.192;4.584;2023-04-28T12:57:31;9.05;;;3.65;;
51686;SDS011;37774;52.192;4.584;2023-04-28T13:00:19;9.57;;;3.63;;
51686;SDS011;37774;52.192;4.584;2023-04-28T13:03:07;9.63;;;4.15;;
51686;SDS011;37774;52.192;4.584;2023-04-28T13:05:53;14.65;;;4.43;;
51686;SDS011;37774;52.192;4.584;2023-04-28T13:08:38;17.50;;;5.47;;
51686;SDS011;37774;52.192;4.584;2023-04-28T13:11:24;14.52;;;5.72;;
51686;SDS011;37774;52.192;4.584;2023-04-28T13:14:10;14.93;;;6.18;;
51686;SDS011;37774;52.192;4.584;2023-04-28T13:16:56;18.33;;;5.80;;
51686;SDS011;37774;52.192;4.584;2023-04-28T13:19:43;15.88;;;5.97;;
51686;SDS011;37774;52.192;4.584;2023-04-28T13:22:28;21.77;;;6.20;;
51686;SDS011;37774;52.192;4.584;2023-04-28T13:25:13;21.40;;;7.18;;
51686;SDS011;37774;52.192;4.584;2023-04-28T13:27:59;25.58;;;6.47;;
51686;SDS011;37774;52.192;4.584;2023-04-28T13:30:45;19.37;;;6.70;;
51686;SDS011;37774;52.192;4.584;2023-04-28T13:33:31;15.40;;;5.78;;
51686;SDS011;37774;52.192;4.584;2023-04-28T13:36:18;14.27;;;5.78;;
51686;SDS011;37774;52.192;4.584;2023-04-28T13:39:03;18.95;;;6.15;;
51686;SDS011;37774;52.192;4.584;2023-04-28T13:41:49;19.25;;;6.43;;
51686;SDS011;37774;52.192;4.584;2023-04-28T13:44:34;10.82;;;5.18;;
51686;SDS011;37774;52.192;4.584;2023-04-28T13:47:20;17.05;;;6.10;;
51686;SDS011;37774;52.192;4.584;2023-04-28T13:50:06;17.75;;;5.15;;
51686;SDS011;37774;52.192;4.584;2023-04-28T13:52:53;14.82;;;5.00;;
51686;SDS011;37774;52.192;4.584;2023-04-28T13:55:38;14.32;;;5.10;;
51686;SDS011;37774;52.192;4.584;2023-04-28T13:58:24;14.88;;;5.25;;
51686;SDS011;37774;52.192;4.584;2023-04-28T14:01:10;24.70;;;5.82;;
51686;SDS011;37774;52.192;4.584;2023-04-28T14:03:56;17.02;;;5.68;;
51686;SDS011;37774;52.192;4.584;2023-04-28T14:06:41;18.25;;;5.47;;
51686;SDS011;37774;52.192;4.584;2023-04-28T14:09:28;14.80;;;5.30;;
51686;SDS011;37774;52.192;4.584;2023-04-28T14:12:14;18.77;;;5.68;;
51686;SDS011;37774;52.192;4.584;2023-04-28T14:15:00;15.57;;;5.25;;
51686;SDS011;37774;52.192;4.584;2023-04-28T14:17:46;12.73;;;5.40;;
51686;SDS011;37774;52.192;4.584;2023-04-28T14:20:32;10.38;;;4.30;;
51686;SDS011;37774;52.192;4.584;2023-04-28T14:23:17;15.73;;;4.80;;
51686;SDS011;37774;52.192;4.584;2023-04-28T14:26:04;22.27;;;6.20;;
51686;SDS011;37774;52.192;4.584;2023-04-28T14:28:50;14.15;;;5.72;;
51686;SDS011;37774;52.192;4.584;2023-04-28T14:31:35;11.27;;;4.78;;
51686;SDS011;37774;52.192;4.584;2023-04-28T14:34:21;10.48;;;4.47;;
51686;SDS011;37774;52.192;4.584;2023-04-28T14:37:07;13.85;;;5.22;;
51686;SDS011;37774;52.192;4.584;2023-04-28T14:39:52;13.32;;;4.93;;
51686;SDS011;37774;52.192;4.584;2023-04-28T14:42:39;23.35;;;5.20;;
51686;SDS011;37774;52.192;4.584;2023-04-28T14:45:25;19.75;;;4.05;;
51686;SDS011;37774;52.192;4.584;2023-04-28T14:48:10;10.43;;;4.78;;
51686;SDS011;37774;52.192;4.584;2023-04-28T14:50:56;20.92;;;4.93;;
51686;SDS011;37774;52.192;4.584;2023-04-28T14:53:42;16.15;;;4.50;;
51686;SDS011;37774;52.192;4.584;2023-04-28T14:56:28;13.25;;;4.13;;
51686;SDS011;37774;52.192;4.584;2023-04-28T14:59:14;11.00;;;4.25;;
51686;SDS011;37774;52.192;4.584;2023-04-28T15:02:01;12.35;;;4.00;;
51686;SDS011;37774;52.192;4.584;2023-04-28T15:04:47;17.42;;;4.88;;
51686;SDS011;37774;52.192;4.584;2023-04-28T15:07:32;6.72;;;3.75;;
51686;SDS011;37774;52.192;4.584;2023-04-28T15:10:18;7.72;;;3.92;;
51686;SDS011;37774;52.192;4.584;2023-04-28T15:13:04;17.58;;;4.20;;
51686;SDS011;37774;52.192;4.584;2023-04-28T15:15:52;11.00;;;3.33;;
51686;SDS011;37774;52.192;4.584;2023-04-28T15:18:37;10.68;;;3.00;;
51686;SDS011;37774;52.192;4.584;2023-04-28T15:21:22;8.50;;;3.00;;
51686;SDS011;37774;52.192;4.584;2023-04-28T15:24:08;14.43;;;3.20;;
51686;SDS011;37774;52.192;4.584;2023-04-28T15:26:54;7.30;;;2.92;;
51686;SDS011;37774;52.192;4.584;2023-04-28T15:29:39;11.10;;;3.10;;
51686;SDS011;37774;52.192;4.584;2023-04-28T15:32:26;14.02;;;3.58;;
51686;SDS011;37774;52.192;4.584;2023-04-28T15:35:14;14.27;;;3.70;;
51686;SDS011;37774;52.192;4.584;2023-04-28T15:37:59;16.08;;;4.55;;
51686;SDS011;37774;52.192;4.584;2023-04-28T15:40:45;14.02;;;3.70;;
51686;SDS011;37774;52.192;4.584;2023-04-28T15:43:31;10.63;;;4.00;;
51686;SDS011;37774;52.192;4.584;2023-04-28T15:46:17;14.45;;;4.13;;
51686;SDS011;37774;52.192;4.584;2023-04-28T15:49:04;7.65;;;2.83;;
51686;SDS011;37774;52.192;4.584;2023-04-28T15:51:49;6.00;;;3.05;;
51686;SDS011;37774;52.192;4.584;2023-04-28T15:54:35;13.68;;;2.67;;
51686;SDS011;37774;52.192;4.584;2023-04-28T15:57:20;8.98;;;2.47;;
51686;SDS011;37774;52.192;4.584;2023-04-28T16:00:06;3.15;;;1.85;;
51686;SDS011;37774;52.192;4.584;2023-04-28T16:02:52;13.32;;;2.25;;
51686;SDS011;37774;52.192;4.584;2023-04-28T16:05:39;8.43;;;2.33;;
51686;SDS011;37774;52.192;4.584;2023-04-28T16:08:24;10.50;;;1.60;;
51686;SDS011;37774;52.192;4.584;2023-04-28T16:11:11;4.50;;;1.55;;
51686;SDS011;37774;52.192;4.584;2023-04-28T16:14:00;7.10;;;2.58;;
51686;SDS011;37774;52.192;4.584;2023-04-28T16:16:45;6.57;;;1.95;;
51686;SDS011;37774;52.192;4.584;2023-04-28T16:19:31;11.18;;;1.90;;
51686;SDS011;37774;52.192;4.584;2023-04-28T16:22:18;3.28;;;1.60;;
51686;SDS011;37774;52.192;4.584;2023-04-28T16:25:03;7.40;;;2.05;;
51686;SDS011;37774;52.192;4.584;2023-04-28T16:27:49;3.30;;;2.03;;
51686;SDS011;37774;52.192;4.584;2023-04-28T16:30:35;9.23;;;2.40;;
51686;SDS011;37774;52.192;4.584;2023-04-28T16:33:21;3.75;;;1.70;;
51686;SDS011;37774;52.192;4.584;2023-04-28T16:36:07;11.93;;;2.58;;
51686;SDS011;37774;52.192;4.584;2023-04-28T16:38:53;12.45;;;3.50;;
51686;SDS011;37774;52.192;4.584;2023-04-28T16:41:39;7.18;;;2.70;;
51686;SDS011;37774;52.192;4.584;2023-04-28T16:44:24;5.85;;;2.40;;
51686;SDS011;37774;52.192;4.584;2023-04-28T16:47:10;6.00;;;2.88;;
51686;SDS011;37774;52.192;4.584;2023-04-28T16:49:57;13.33;;;4.30;;
51686;SDS011;37774;52.192;4.584;2023-04-28T16:52:42;13.77;;;5.43;;
51686;SDS011;37774;52.192;4.584;2023-04-28T16:55:29;13.02;;;5.07;;
51686;SDS011;37774;52.192;4.584;2023-04-28T16:58:14;18.77;;;6.22;;
51686;SDS011;37774;52.192;4.584;2023-04-28T17:01:00;24.08;;;7.55;;
51686;SDS011;37774;52.192;4.584;2023-04-28T17:03:45;19.30;;;8.07;;
51686;SDS011;37774;52.192;4.584;2023-04-28T17:06:31;21.48;;;7.88;;
51686;SDS011;37774;52.192;4.584;2023-04-28T17:09:16;17.67;;;6.97;;
51686;SDS011;37774;52.192;4.584;2023-04-28T17:12:03;23.02;;;8.68;;
51686;SDS011;37774;52.192;4.584;2023-04-28T17:14:48;25.30;;;9.23;;
51686;SDS011;37774;52.192;4.584;2023-04-28T17:17:35;26.58;;;9.77;;
51686;SDS011;37774;52.192;4.584;2023-04-28T17:20:21;20.73;;;9.65;;